createdAt,value
2023-05-21T00:02:20.073Z,101267.19
2023-05-21T00:04:47.893Z,101260.09
2023-05-21T00:07:15.622Z,101259.66
2023-05-21T00:09:43.169Z,101256.78
2023-05-21T00:12:11.441Z,101256.81
2023-05-21T00:14:38.925Z,101249.69
2023-05-21T00:17:06.581Z,101246.84
2023-05-21T00:19:34.825Z,101253.03
2023-05-21T00:22:04.631Z,101266.06
2023-05-21T00:24:33.355Z,101244.34
2023-05-21T00:27:01.119Z,101260.09
2023-05-21T00:29:30.209Z,101245.16
2023-05-21T00:31:57.698Z,101249.81
2023-05-21T00:34:26.582Z,101242.66
2023-05-21T00:36:55.646Z,101249.44
2023-05-21T00:39:23.992Z,101233.13
2023-05-21T00:41:51.424Z,101241.72
2023-05-21T00:44:19.774Z,101236.47
2023-05-21T00:46:49.049Z,101226.81
2023-05-21T00:49:17.105Z,101233.19
2023-05-21T00:51:45.400Z,101230.84
2023-05-21T00:54:13.055Z,101226.53
2023-05-21T00:56:41.604Z,101220.34
2023-05-21T00:59:09.208Z,101222.00
2023-05-21T01:01:37.409Z,101222.59
2023-05-21T01:04:05.247Z,101222.00
2023-05-21T01:06:35.796Z,101218.28
2023-05-21T01:09:05.577Z,101213.69
2023-05-21T01:11:40.428Z,101213.47
2023-05-21T01:14:11.215Z,101222.75
2023-05-21T01:16:41.063Z,101217.69
2023-05-21T01:19:11.244Z,101218.75
2023-05-21T01:21:42.563Z,101223.59
2023-05-21T01:24:10.097Z,101220.84
2023-05-21T01:26:39.066Z,101220.59
2023-05-21T01:29:06.861Z,101224.63
2023-05-21T01:31:56.631Z,101218.00
2023-05-21T01:34:33.150Z,101214.66
2023-05-21T01:37:28.211Z,101213.81
2023-05-21T01:40:11.967Z,101217.19
2023-05-21T01:42:45.949Z,101224.47
2023-05-21T01:45:15.953Z,101222.41
2023-05-21T01:47:48.115Z,101231.88
2023-05-21T01:50:16.422Z,101236.53
2023-05-21T01:52:54.547Z,101242.44
2023-05-21T01:55:25.472Z,101242.03
2023-05-21T01:57:53.947Z,101233.25
2023-05-21T02:00:22.666Z,101239.94
2023-05-21T02:02:51.192Z,101243.72
2023-05-21T02:05:18.902Z,101239.72
2023-05-21T02:07:47.466Z,101240.19
2023-05-21T02:10:17.532Z,101243.53
2023-05-21T02:12:45.114Z,101243.06
2023-05-21T02:15:14.496Z,101239.09
2023-05-21T02:17:42.631Z,101243.75
2023-05-21T02:20:13.885Z,101243.31
2023-05-21T02:22:43.650Z,101236.63
2023-05-21T02:25:12.772Z,101239.09
2023-05-21T02:27:42.615Z,101235.16
2023-05-21T02:30:15.127Z,101245.00
2023-05-21T02:32:43.702Z,101239.56
2023-05-21T02:35:13.377Z,101247.94
2023-05-21T02:37:41.084Z,101236.44
2023-05-21T02:40:10.179Z,101246.66
2023-05-21T02:42:40.187Z,101247.09
2023-05-21T02:45:09.568Z,101242.53
2023-05-21T02:47:38.547Z,101241.88
2023-05-21T02:50:09.041Z,101240.84
2023-05-21T02:52:36.656Z,101230.81
2023-05-21T02:55:04.620Z,101236.88
2023-05-21T02:57:32.057Z,101236.66
2023-05-21T02:59:59.552Z,101238.75
2023-05-21T03:02:27.133Z,101250.25
2023-05-21T03:04:54.731Z,101246.28
2023-05-21T03:07:22.560Z,101245.84
2023-05-21T03:09:50.046Z,101251.72
2023-05-21T03:12:17.463Z,101249.59
2023-05-21T03:14:46.567Z,101248.75
2023-05-21T03:17:15.360Z,101255.88
2023-05-21T03:19:44.026Z,101248.56
2023-05-21T03:22:11.756Z,101251.84
2023-05-21T03:24:40.025Z,101256.22
2023-05-21T03:27:08.225Z,101253.75
2023-05-21T03:29:36.324Z,101249.13
2023-05-21T03:32:04.266Z,101250.13
2023-05-21T03:34:34.579Z,101252.84
2023-05-21T03:37:02.463Z,101248.88
2023-05-21T03:39:30.154Z,101245.53
2023-05-21T03:41:57.551Z,101246.31
2023-05-21T03:44:25.244Z,101235.59
2023-05-21T03:46:52.707Z,101232.03
2023-05-21T03:49:20.989Z,101238.91
2023-05-21T03:51:48.401Z,101238.47
2023-05-21T03:54:15.796Z,101240.75
2023-05-21T03:56:43.247Z,101239.09
2023-05-21T03:59:10.655Z,101230.47
2023-05-21T04:01:39.200Z,101234.16
2023-05-21T04:04:06.730Z,101235.44
2023-05-21T04:06:34.503Z,101235.00
2023-05-21T04:09:02.293Z,101241.41
2023-05-21T04:11:29.902Z,101239.84
2023-05-21T04:13:57.333Z,101245.72
2023-05-21T04:16:25.303Z,101249.25
2023-05-21T04:18:55.584Z,101241.03
2023-05-21T04:21:23.123Z,101255.03
2023-05-21T04:23:50.611Z,101247.81
2023-05-21T04:26:17.966Z,101247.97
2023-05-21T04:28:45.994Z,101242.53
2023-05-21T04:31:13.932Z,101247.06
2023-05-21T04:33:46.136Z,101241.06
2023-05-21T04:36:13.724Z,101237.59
2023-05-21T04:38:42.070Z,101244.25
2023-05-21T04:41:11.011Z,101241.69
2023-05-21T04:43:38.629Z,101250.41
2023-05-21T04:46:06.183Z,101246.63
2023-05-21T04:48:35.141Z,101251.47
2023-05-21T04:51:05.883Z,101257.03
2023-05-21T04:53:36.037Z,101260.19
2023-05-21T04:56:04.052Z,101256.88
2023-05-21T04:58:33.011Z,101257.41
2023-05-21T05:01:03.316Z,101255.00
2023-05-21T05:03:31.036Z,101250.66
2023-05-21T05:05:58.524Z,101262.31
2023-05-21T05:08:26.000Z,101260.00
2023-05-21T05:10:53.632Z,101257.56
2023-05-21T05:13:21.388Z,101264.34
2023-05-21T05:15:50.196Z,101256.16
2023-05-21T05:18:18.422Z,101264.75
2023-05-21T05:20:46.765Z,101252.31
2023-05-21T05:23:17.982Z,101257.72
2023-05-21T05:25:45.714Z,101254.41
2023-05-21T05:28:13.178Z,101252.13
2023-05-21T05:30:40.690Z,101257.50
2023-05-21T05:33:08.225Z,101249.53
2023-05-21T05:35:36.555Z,101249.78
2023-05-21T05:38:04.231Z,101254.66
2023-05-21T05:40:32.053Z,101259.75
2023-05-21T05:42:59.525Z,101251.94
2023-05-21T05:45:26.971Z,101260.00
2023-05-21T05:47:54.569Z,101250.63
2023-05-21T05:50:22.177Z,101250.84
2023-05-21T05:52:49.625Z,101252.19
2023-05-21T05:55:17.157Z,101246.47
2023-05-21T05:57:45.215Z,101254.63
2023-05-21T06:00:13.330Z,101254.59
2023-05-21T06:02:41.096Z,101251.13
2023-05-21T06:05:10.070Z,101257.84
2023-05-21T06:07:39.014Z,101252.91
2023-05-21T06:10:10.033Z,101246.44
2023-05-21T06:12:37.575Z,101249.75
2023-05-21T06:15:06.200Z,101252.38
2023-05-21T06:17:34.073Z,101239.72
2023-05-21T06:20:01.532Z,101248.06
2023-05-21T06:22:28.988Z,101243.47
2023-05-21T06:24:56.403Z,101240.19
2023-05-21T06:27:23.938Z,101236.47
2023-05-21T06:29:51.900Z,101235.84
2023-05-21T06:32:21.424Z,101238.03
2023-05-21T06:34:48.907Z,101239.72
2023-05-21T06:37:21.065Z,101237.00
2023-05-21T06:39:50.067Z,101241.38
2023-05-21T06:42:17.569Z,101236.88
2023-05-21T06:44:45.000Z,101236.78
2023-05-21T06:47:12.544Z,101234.00
2023-05-21T06:49:40.076Z,101232.41
2023-05-21T06:52:07.530Z,101238.75
2023-05-21T06:54:34.931Z,101233.84
2023-05-21T06:57:02.619Z,101239.59
2023-05-21T06:59:30.093Z,101241.63
2023-05-21T07:01:57.609Z,101238.22
2023-05-21T07:04:25.064Z,101243.84
2023-05-21T07:06:53.661Z,101234.97
2023-05-21T07:09:21.259Z,101236.38
2023-05-21T07:11:48.650Z,101238.22
2023-05-21T07:14:16.109Z,101233.44
2023-05-21T07:16:43.749Z,101226.97
2023-05-21T07:19:11.171Z,101227.13
2023-05-21T07:21:38.744Z,101222.81
2023-05-21T07:24:06.462Z,101219.44
2023-05-21T07:26:33.959Z,101226.63
2023-05-21T07:29:01.433Z,101215.59
2023-05-21T07:31:29.305Z,101218.13
2023-05-21T07:33:56.732Z,101208.59
2023-05-21T07:36:24.215Z,101214.75
2023-05-21T07:38:51.639Z,101212.00
2023-05-21T07:41:19.175Z,101218.09
2023-05-21T07:43:46.708Z,101222.00
2023-05-21T07:46:14.151Z,101210.94
2023-05-21T07:48:41.951Z,101217.59
2023-05-21T07:51:09.530Z,101219.25
2023-05-21T07:53:37.058Z,101222.03
2023-05-21T07:56:04.587Z,101218.75
2023-05-21T07:58:32.691Z,101210.72
2023-05-21T08:01:00.223Z,101220.41
2023-05-21T08:03:31.004Z,101208.81
2023-05-21T08:05:58.747Z,101210.44
2023-05-21T08:08:26.766Z,101214.91
2023-05-21T08:10:54.826Z,101210.50
2023-05-21T08:13:22.323Z,101206.91
2023-05-21T08:15:52.729Z,101216.31
2023-05-21T08:18:20.822Z,101219.88
2023-05-21T08:20:48.541Z,101209.38
2023-05-21T08:23:16.204Z,101212.69
2023-05-21T08:25:43.705Z,101208.28
2023-05-21T08:28:11.136Z,101212.97
2023-05-21T08:30:39.074Z,101216.56
2023-05-21T08:33:06.949Z,101204.97
2023-05-21T08:35:34.596Z,101208.81
2023-05-21T08:38:02.267Z,101201.66
2023-05-21T08:40:30.952Z,101193.81
2023-05-21T08:42:58.612Z,101204.50
2023-05-21T08:45:27.114Z,101198.44
2023-05-21T08:47:58.641Z,101197.88
2023-05-21T08:50:31.531Z,101201.41
2023-05-21T08:53:01.387Z,101179.75
2023-05-21T08:55:29.772Z,101189.13
2023-05-21T08:57:57.194Z,101187.78
2023-05-21T09:00:24.821Z,101184.56
2023-05-21T09:02:54.800Z,101182.59
2023-05-21T09:05:22.700Z,101180.84
2023-05-21T09:08:27.420Z,101175.69
2023-05-21T09:10:55.297Z,101170.31
2023-05-21T09:13:25.562Z,101167.75
2023-05-21T09:15:52.974Z,101173.34
2023-05-21T09:18:21.139Z,101159.22
2023-05-21T09:20:48.793Z,101170.19
2023-05-21T09:23:18.183Z,101160.75
2023-05-21T09:25:47.436Z,101160.19
2023-05-21T09:28:16.344Z,101161.41
2023-05-21T09:30:53.506Z,101157.50
2023-05-21T09:33:29.796Z,101154.16
2023-05-21T09:35:57.750Z,101150.41
2023-05-21T09:38:26.240Z,101152.53
2023-05-21T09:40:56.951Z,101150.06
2023-05-21T09:43:25.433Z,101138.28
2023-05-21T09:45:58.972Z,101138.50
2023-05-21T09:48:42.267Z,101135.91
2023-05-21T09:51:11.650Z,101143.69
2023-05-21T09:53:49.835Z,101139.22
2023-05-21T09:56:29.596Z,101134.75
2023-05-21T09:59:00.354Z,101133.09
2023-05-21T10:01:31.017Z,101140.63
2023-05-21T10:04:00.248Z,101123.44
2023-05-21T10:06:32.376Z,101128.69
2023-05-21T10:09:05.948Z,101142.50
2023-05-21T10:11:36.699Z,101145.56
2023-05-21T10:14:09.261Z,101143.97
2023-05-21T10:16:38.121Z,101137.97
2023-05-21T10:19:11.018Z,101141.34
2023-05-21T10:21:40.131Z,101136.94
2023-05-21T10:24:09.063Z,101138.38
2023-05-21T10:26:37.015Z,101133.69
2023-05-21T10:29:04.957Z,101136.50
2023-05-21T10:31:33.441Z,101136.56
2023-05-21T10:34:01.359Z,101139.00
2023-05-21T10:36:33.618Z,101144.00
2023-05-21T10:39:02.733Z,101146.25
2023-05-21T10:41:41.514Z,101149.81
2023-05-21T10:44:36.886Z,101142.94
2023-05-21T10:47:32.958Z,101144.56
2023-05-21T10:50:31.320Z,101149.75
2023-05-21T10:53:36.737Z,101135.44
2023-05-21T10:56:49.877Z,101127.09
2023-05-21T10:59:22.356Z,101119.81
2023-05-21T11:01:54.196Z,101117.38
2023-05-21T11:04:28.978Z,101110.47
2023-05-21T11:06:59.169Z,101113.25
2023-05-21T11:09:27.365Z,101120.97
2023-05-21T11:11:59.119Z,101123.78
2023-05-21T11:14:40.282Z,101118.72
2023-05-21T11:17:12.914Z,101117.50
2023-05-21T11:19:42.920Z,101112.28
2023-05-21T11:22:22.496Z,101111.75
2023-05-21T11:24:51.834Z,101109.28
2023-05-21T11:27:42.350Z,101107.84
2023-05-21T11:30:15.667Z,101108.84
2023-05-21T11:33:08.302Z,101108.22
2023-05-21T11:35:55.581Z,101096.50
2023-05-21T11:38:23.000Z,101105.09
2023-05-21T11:40:54.781Z,101098.25
2023-05-21T11:43:22.727Z,101099.53
2023-05-21T11:45:52.707Z,101110.00
2023-05-21T11:48:26.896Z,101105.91
2023-05-21T11:50:55.732Z,101111.31
2023-05-21T11:53:23.239Z,101100.34
2023-05-21T11:55:57.498Z,101120.00
2023-05-21T11:58:25.414Z,101108.22
2023-05-21T12:00:53.355Z,101106.22
2023-05-21T12:03:27.797Z,101106.78
2023-05-21T12:05:55.341Z,101098.00
2023-05-21T12:08:25.899Z,101103.50
2023-05-21T12:11:00.049Z,101107.88
2023-05-21T12:13:28.551Z,101110.09
2023-05-21T12:15:56.194Z,101122.66
2023-05-21T12:18:23.790Z,101118.50
2023-05-21T12:20:54.092Z,101104.72
2023-05-21T12:23:25.793Z,101120.03
2023-05-21T12:25:56.525Z,101126.28
2023-05-21T12:28:24.966Z,101125.63
2023-05-21T12:30:53.693Z,101129.34
2023-05-21T12:33:25.060Z,101119.34
2023-05-21T12:35:52.684Z,101139.84
2023-05-21T12:38:20.431Z,101132.81
2023-05-21T12:40:48.270Z,101140.31
2023-05-21T12:43:15.729Z,101158.63
2023-05-21T12:45:43.629Z,101176.66
2023-05-21T12:48:12.719Z,101186.13
2023-05-21T12:50:41.888Z,101205.84
2023-05-21T12:53:12.271Z,101207.66
2023-05-21T12:55:40.823Z,101213.50
2023-05-21T12:58:08.997Z,101218.13
2023-05-21T13:00:37.386Z,101221.34
2023-05-21T13:03:06.767Z,101222.00
2023-05-21T13:05:35.758Z,101233.81
2023-05-21T13:08:03.386Z,101244.25
2023-05-21T13:10:31.342Z,101258.09
2023-05-21T13:13:01.849Z,101267.41
2023-05-21T13:15:29.617Z,101268.72
2023-05-21T13:17:57.895Z,101260.47
2023-05-21T13:20:27.605Z,101263.22
2023-05-21T13:22:55.276Z,101271.50
2023-05-21T13:25:25.238Z,101270.41
2023-05-21T13:27:53.760Z,101275.09
2023-05-21T13:30:22.193Z,101279.72
2023-05-21T13:32:50.083Z,101284.56
2023-05-21T13:35:17.824Z,101282.47
2023-05-21T13:37:46.206Z,101280.44
2023-05-21T13:40:16.038Z,101276.91
2023-05-21T13:42:46.169Z,101276.56
2023-05-21T13:45:18.704Z,101281.25
2023-05-21T13:47:48.094Z,101281.19
2023-05-21T13:50:16.335Z,101298.06
2023-05-21T13:52:43.913Z,101296.09
2023-05-21T13:55:11.402Z,101295.66
2023-05-21T13:57:40.859Z,101272.28
2023-05-21T14:00:14.337Z,101258.44
2023-05-21T14:02:43.847Z,101255.53
2023-05-21T14:05:13.334Z,101246.47
2023-05-21T14:07:42.177Z,101233.63
2023-05-21T14:10:09.995Z,101230.69
2023-05-21T14:12:38.607Z,101227.88
2023-05-21T14:15:06.844Z,101218.47
2023-05-21T14:17:34.546Z,101222.91
2023-05-21T14:20:02.081Z,101215.22
2023-05-21T14:22:29.767Z,101220.78
2023-05-21T14:24:57.304Z,101232.69
2023-05-21T14:27:24.832Z,101235.88
2023-05-21T14:29:52.281Z,101235.22
2023-05-21T14:32:19.817Z,101246.53
2023-05-21T14:34:47.347Z,101264.28
2023-05-21T14:37:14.749Z,101268.22
2023-05-21T14:39:43.314Z,101277.41
2023-05-21T14:42:10.763Z,101276.94
2023-05-21T14:44:38.239Z,101275.38
2023-05-21T14:47:05.701Z,101273.28
2023-05-21T14:49:33.667Z,101282.03
2023-05-21T14:52:01.243Z,101274.06
2023-05-21T14:54:28.668Z,101280.19
2023-05-21T14:56:56.136Z,101278.91
2023-05-21T14:59:23.494Z,101277.28
2023-05-21T15:01:51.035Z,101293.41
2023-05-21T15:04:18.503Z,101281.50
2023-05-21T15:06:46.029Z,101279.56
2023-05-21T15:09:13.503Z,101289.28
2023-05-21T15:11:41.039Z,101288.47
2023-05-21T15:14:08.410Z,101285.59
2023-05-21T15:16:36.207Z,101299.22
2023-05-21T15:19:04.317Z,101301.56
2023-05-21T15:21:32.220Z,101306.25
2023-05-21T15:23:59.635Z,101306.47
2023-05-21T15:26:27.120Z,101320.06
2023-05-21T15:28:54.751Z,101319.25
2023-05-21T15:31:22.127Z,101314.22
2023-05-21T15:33:49.640Z,101307.09
2023-05-21T15:36:17.138Z,101305.00
2023-05-21T15:38:44.581Z,101302.38
2023-05-21T15:41:12.157Z,101308.59
2023-05-21T15:43:39.622Z,101305.06
2023-05-21T15:46:07.364Z,101307.78
2023-05-21T15:48:35.016Z,101310.59
2023-05-21T15:51:02.578Z,101300.03
2023-05-21T15:53:30.133Z,101304.13
2023-05-21T15:55:57.538Z,101302.00
2023-05-21T15:58:25.314Z,101301.81
2023-05-21T16:00:52.820Z,101305.78
2023-05-21T16:03:20.706Z,101303.69
2023-05-21T16:05:48.159Z,101298.16
2023-05-21T16:08:15.612Z,101295.66
2023-05-21T16:10:43.040Z,101287.91
2023-05-21T16:13:10.529Z,101288.41
2023-05-21T16:15:38.373Z,101289.69
2023-05-21T16:18:08.323Z,101285.50
2023-05-21T16:20:35.982Z,101284.38
2023-05-21T16:23:03.880Z,101284.56
2023-05-21T16:25:31.223Z,101272.22
2023-05-21T16:27:58.636Z,101278.38
2023-05-21T16:30:26.252Z,101277.16
2023-05-21T16:32:53.952Z,101267.69
2023-05-21T16:35:21.438Z,101273.28
2023-05-21T16:37:48.807Z,101278.78
2023-05-21T16:40:16.305Z,101270.72
2023-05-21T16:42:43.844Z,101268.44
2023-05-21T16:45:15.777Z,101260.09
2023-05-21T16:47:43.332Z,101270.34
2023-05-21T16:50:11.084Z,101264.97
2023-05-21T16:52:39.032Z,101258.59
2023-05-21T16:55:06.688Z,101257.47
2023-05-21T16:57:34.973Z,101257.38
2023-05-21T17:00:05.098Z,101249.16
2023-05-21T17:02:32.994Z,101257.47
2023-05-21T17:05:00.409Z,101245.81
2023-05-21T17:07:27.843Z,101237.22
2023-05-21T17:09:55.399Z,101238.69
2023-05-21T17:12:22.858Z,101242.47
2023-05-21T17:14:50.336Z,101241.13
2023-05-21T17:17:18.501Z,101235.34
2023-05-21T17:19:45.860Z,101242.66
2023-05-21T17:22:14.639Z,101229.28
2023-05-21T17:24:42.344Z,101236.38
2023-05-21T17:27:09.788Z,101230.50
2023-05-21T17:29:37.349Z,101234.53
2023-05-21T17:32:05.099Z,101237.53
2023-05-21T17:34:32.956Z,101237.72
2023-05-21T17:37:00.479Z,101237.97
2023-05-21T17:39:27.919Z,101232.00
2023-05-21T17:41:56.042Z,101235.78
2023-05-21T17:44:23.989Z,101237.50
2023-05-21T17:46:52.135Z,101233.56
2023-05-21T17:49:19.746Z,101237.13
2023-05-21T17:51:48.161Z,101237.63
2023-05-21T17:54:16.002Z,101234.19
2023-05-21T17:56:46.148Z,101228.84
2023-05-21T17:59:14.486Z,101239.75
2023-05-21T18:01:42.161Z,101246.47
2023-05-21T18:04:10.964Z,101238.50
2023-05-21T18:06:40.117Z,101228.47
2023-05-21T18:09:08.204Z,101241.84
2023-05-21T18:11:36.757Z,101248.78
2023-05-21T18:14:04.290Z,101243.97
2023-05-21T18:16:32.316Z,101245.63
2023-05-21T18:19:02.269Z,101245.88
2023-05-21T18:21:29.782Z,101236.47
2023-05-21T18:23:57.308Z,101251.31
2023-05-21T18:26:25.177Z,101257.34
2023-05-21T18:28:53.340Z,101255.47
2023-05-21T18:31:21.010Z,101267.03
2023-05-21T18:33:48.427Z,101266.59
2023-05-21T18:36:17.239Z,101273.25
2023-05-21T18:38:44.739Z,101268.03
2023-05-21T18:41:12.131Z,101274.53
2023-05-21T18:43:41.597Z,101277.03
2023-05-21T18:46:09.242Z,101293.59
2023-05-21T18:48:38.968Z,101296.53
2023-05-21T18:51:06.389Z,101302.13
2023-05-21T18:53:34.528Z,101318.66
2023-05-21T18:56:02.023Z,101331.25
2023-05-21T18:58:30.144Z,101324.97
2023-05-21T19:00:57.621Z,101321.00
2023-05-21T19:03:24.978Z,101319.31
2023-05-21T19:05:52.370Z,101317.38
2023-05-21T19:08:19.761Z,101304.22
2023-05-21T19:10:47.419Z,101300.47
2023-05-21T19:13:15.563Z,101308.44
2023-05-21T19:15:46.988Z,101298.41
2023-05-21T19:18:14.867Z,101287.34
2023-05-21T19:20:42.257Z,101278.34
2023-05-21T19:23:09.858Z,101275.88
2023-05-21T19:25:38.465Z,101276.28
2023-05-21T19:28:05.894Z,101277.09
2023-05-21T19:30:36.433Z,101275.03
2023-05-21T19:33:04.212Z,101278.78
2023-05-21T19:35:32.092Z,101275.88
2023-05-21T19:38:01.751Z,101277.38
2023-05-21T19:40:31.030Z,101278.78
2023-05-21T19:42:58.461Z,101274.78
2023-05-21T19:45:26.090Z,101269.53
2023-05-21T19:47:53.596Z,101275.84
2023-05-21T19:50:21.116Z,101260.81
2023-05-21T19:52:48.519Z,101266.63
2023-05-21T19:55:20.440Z,101260.81
2023-05-21T19:57:48.016Z,101260.34
2023-05-21T20:00:15.860Z,101259.09
2023-05-21T20:02:44.060Z,101253.44
2023-05-21T20:05:11.496Z,101251.50
2023-05-21T20:07:39.113Z,101239.41
2023-05-21T20:10:08.910Z,101236.91
2023-05-21T20:12:37.001Z,101240.00
2023-05-21T20:15:08.338Z,101236.06
2023-05-21T20:17:36.225Z,101233.06
2023-05-21T20:20:07.958Z,101225.34
2023-05-21T20:22:36.159Z,101226.84
2023-05-21T20:25:04.147Z,101226.84
2023-05-21T20:27:32.139Z,101217.84
2023-05-21T20:29:59.532Z,101217.66
2023-05-21T20:32:28.012Z,101222.88
2023-05-21T20:35:03.266Z,101221.44
2023-05-21T20:37:34.924Z,101218.97
2023-05-21T20:40:02.560Z,101216.88
2023-05-21T20:42:34.755Z,101226.75
2023-05-21T20:45:03.239Z,101225.50
2023-05-21T20:47:31.635Z,101232.00
2023-05-21T20:50:00.430Z,101234.50
2023-05-21T20:52:27.922Z,101229.09
2023-05-21T20:54:56.744Z,101223.25
2023-05-21T20:57:26.254Z,101220.78
2023-05-21T20:59:54.445Z,101210.72
2023-05-21T21:02:23.510Z,101203.63
2023-05-21T21:04:51.025Z,101204.91
2023-05-21T21:07:19.499Z,101210.75
2023-05-21T21:09:48.980Z,101201.97
2023-05-21T21:12:26.087Z,101207.84
2023-05-21T21:14:55.502Z,101208.22
2023-05-21T21:17:23.510Z,101203.63
2023-05-21T21:19:51.023Z,101206.34
2023-05-21T21:22:18.713Z,101202.34
2023-05-21T21:24:46.223Z,101200.50
2023-05-21T21:27:14.402Z,101208.22
2023-05-21T21:29:41.863Z,101205.28
2023-05-21T21:32:09.533Z,101204.88
2023-05-21T21:34:38.378Z,101208.22
2023-05-21T21:37:06.016Z,101198.63
2023-05-21T21:39:33.508Z,101200.28
2023-05-21T21:42:01.259Z,101201.75
2023-05-21T21:44:28.953Z,101200.50
2023-05-21T21:46:56.382Z,101202.81
2023-05-21T21:49:23.783Z,101208.22
2023-05-21T21:51:51.523Z,101201.13
2023-05-21T21:54:19.078Z,101193.81
2023-05-21T21:56:46.482Z,101189.00
2023-05-21T21:59:13.879Z,101192.13
2023-05-21T22:01:43.005Z,101188.59
2023-05-21T22:04:11.390Z,101183.56
2023-05-21T22:06:39.799Z,101178.56
2023-05-21T22:09:07.570Z,101177.28
2023-05-21T22:11:35.511Z,101171.88
2023-05-21T22:14:02.946Z,101170.19
2023-05-21T22:16:30.532Z,101166.41
2023-05-21T22:18:58.962Z,101169.94
2023-05-21T22:21:32.502Z,101171.66
2023-05-21T22:24:00.276Z,101160.94
2023-05-21T22:26:28.092Z,101161.34
2023-05-21T22:28:55.792Z,101167.16
2023-05-21T22:31:23.271Z,101161.09
2023-05-21T22:33:50.727Z,101153.34
2023-05-21T22:36:18.392Z,101147.97
2023-05-21T22:38:45.949Z,101150.44
2023-05-21T22:41:13.730Z,101151.50
2023-05-21T22:43:41.534Z,101147.91
2023-05-21T22:46:08.972Z,101153.78
2023-05-21T22:48:37.429Z,101145.00
2023-05-21T22:51:05.650Z,101150.22
2023-05-21T22:53:33.628Z,101145.25
2023-05-21T22:56:01.187Z,101147.97
2023-05-21T22:58:28.643Z,101149.66
2023-05-21T23:00:56.355Z,101135.81
2023-05-21T23:03:23.850Z,101137.88
2023-05-21T23:05:51.339Z,101134.31
2023-05-21T23:08:18.848Z,101130.00
2023-05-21T23:10:46.513Z,101131.19
2023-05-21T23:13:13.948Z,101133.28
2023-05-21T23:15:43.794Z,101129.53
2023-05-21T23:18:11.834Z,101126.66
2023-05-21T23:20:41.165Z,101133.28
2023-05-21T23:23:09.854Z,101130.63
2023-05-21T23:25:37.511Z,101133.34
2023-05-21T23:28:05.219Z,101122.06
2023-05-21T23:30:32.782Z,101123.72
2023-05-21T23:33:00.655Z,101126.47
2023-05-21T23:35:28.211Z,101126.69
2023-05-21T23:37:55.999Z,101127.91
2023-05-21T23:40:23.455Z,101125.47
2023-05-21T23:42:51.124Z,101126.31
2023-05-21T23:45:18.654Z,101115.06
2023-05-21T23:47:46.664Z,101110.88
2023-05-21T23:50:14.230Z,101128.59
2023-05-21T23:52:41.716Z,101114.38
2023-05-21T23:55:11.613Z,101113.75
2023-05-21T23:57:39.250Z,101113.34
